11 de agosto de 2022

Hora Código Tiempo Temp. Visibilidad Cielo nuboso Viento METAR/SPECI
12:00 p. m.
V
73 °F 30 mi 10.000 ft 200° 200° 6 kt METAR CYUL 111600Z 20006KT 170V240 30SM FEW020 FEW050 BKN100 BKN250 23/17 A2987 RMK CF1CU1AC4CC1 CF TR SLP118 DENSITY ALT 1200FT
11:00 a. m.
V
70 °F 30 mi 10.000 ft 270° 270° 6 kt METAR CYUL 111500Z 27006KT 200V290 30SM BKN100 BKN120 BKN250 21/17 A2987 RMK AC5ACC1CI1 CI TR SLP118 DENSITY ALT 1000FT
10:00 a. m.
V
68 °F 30 mi 10.000 ft 250° 250° 6 kt METAR CYUL 111400Z 25006KT 30SM FEW060 BKN100 BKN120 BKN250 20/17 A2988 RMK CU1AC5ACC1CI1 ACC TR SLP120 DENSITY ALT 800FT
9:00 a. m.
V
66 °F 30 mi 11.000 ft 250° 250° 9 kt METAR CYUL 111300Z 25009KT 30SM FEW015TCU BKN110 BKN150 19/16 A2988 RMK TCU1ACC5AC2 TCU TR SLP120 DENSITY ALT 800FT
8:00 a. m.
V
66 °F 30 mi 15.000 ft 260° 260° 9 kt METAR CYUL 111200Z 26009KT 30SM FEW015 SCT120 BKN150 19/16 A2988 RMK CU1ACC4AC3 CU TR SLP120 DENSITY ALT 700FT
7:00 a. m.
V
64 °F 30 mi 15.000 ft 230° 230° 4 kt METAR CYUL 111100Z 23004KT 30SM SCT130 BKN150 BKN250 18/16 A2987 RMK ACC3AC4CI1 CI TR SLP116 DENSITY ALT 600FT
6:00 a. m.
V
64 °F 30 mi 15.000 ft 240° 240° 9 kt METAR CYUL 111000Z 24009KT 30SM FEW100 BKN150 BKN250 18/15 A2988 RMK AC1AC5CI1 AC TR SLP119 DENSITY ALT 600FT
5:00 a. m.
V
66 °F 15 mi - 220° 220° 13 kt METAR CYUL 110900Z 22013KT 15SM SCT150 19/15 A2988 RMK AC3 SLP120 DENSITY ALT 700FT
4:00 a. m.
V
66 °F 15 mi - 200° 200° 11 kt METAR CYUL 110800Z 20011KT 15SM FEW250 19/16 A2989 RMK CC1 CC TR SLP124 DENSITY ALT 700FT
3:00 a. m.
V
64 °F 15 mi - 220° 220° 4 kt METAR CYUL 110700Z 22004KT 15SM SKC 18/16 A2992 RMK SLP132 DENSITY ALT 600FT
2:00 a. m.
V
66 °F 15 mi - 250° 250° 4 kt METAR CYUL 110600Z 25004KT 15SM FEW250 19/16 A2992 RMK CC1 SLP135 DENSITY ALT 600FT
1:00 a. m.
V
68 °F 15 mi - 200° 200° 9 kt METAR CYUL 110500Z 20009KT 15SM FEW250 20/17 A2993 RMK CC2 SLP138 DENSITY ALT 800FT
12:00 a. m.
V
70 °F 15 mi - 200° 200° 8 kt METAR CYUL 110400Z 20008KT 15SM SCT250 21/17 A2994 RMK CC4 SLP141 DENSITY ALT 800FT

10 de agosto de 2022

Hora Código Tiempo Temp. Visibilidad Cielo nuboso Viento METAR/SPECI
11:00 p. m.
V
72 °F 15 mi 25.000 ft 200° 200° 8 kt METAR CYUL 110300Z 20008KT 15SM BKN250 22/17 A2995 RMK CC6 SLP143 DENSITY ALT 900FT
8:00 a. m.
V
66 °F 30 mi 4.500 ft 360° 360° 3 kt METAR CYUL 101200Z 36003KT 290V020 30SM FEW015 BKN045 19/16 A3010 RMK CU1SC7 CU TR SLP194 DENSITY ALT 400FT
7:00 a. m.
V
63 °F 15 mi 4.200 ft Var Var 2 kt METAR CYUL 101100Z VRB02KT 15SM FEW018 OVC042 17/15 A3008 RMK CU1SC8 CU TR SLP190 DENSITY ALT 300FT
6:00 a. m.
V
63 °F 15 mi 4.500 ft Var 000° 0 kt METAR CYUL 101000Z 00000KT 15SM FEW020 OVC045 17/15 A3007 RMK CF1SC8 CF TR SLP186 DENSITY ALT 300FT
5:00 a. m.
V
63 °F 15 mi 4.800 ft 330° 330° 3 kt METAR CYUL 100900Z 33003KT 15SM OVC048 17/15 A3007 RMK SC8 SLP184 DENSITY ALT 300FT
4:00 a. m.
V
63 °F 15 mi 5.000 ft 310° 310° 3 kt METAR CYUL 100800Z 31003KT 15SM OVC050 17/15 A3006 RMK SC8 SLP183 DENSITY ALT 300FT
3:00 a. m.
V
63 °F 15 mi 5.000 ft 320° 320° 3 kt METAR CYUL 100700Z 32003KT 15SM FEW025 OVC050 17/15 A3006 RMK SC1SC8 SC TR SLP181 DENSITY ALT 300FT
2:00 a. m.
V
63 °F 15 mi 5.000 ft 320° 320° 2 kt METAR CYUL 100600Z 32002KT 15SM FEW028 OVC050 17/15 A3005 RMK SC1SC8 SC TR SLP179 DENSITY ALT 300FT
1:00 a. m.
V
64 °F 15 mi 5.200 ft 340° 340° 4 kt METAR CYUL 100500Z 34004KT 15SM FEW028 OVC052 18/15 A3005 RMK SC2SC6 SLP180 DENSITY ALT 400FT
12:00 a. m.
V
64 °F 15 mi 5.200 ft 030° 030° 5 kt METAR CYUL 100400Z 03005KT 15SM FEW028 OVC052 18/15 A3005 RMK SC1SC8 SC TR SLP179 DENSITY ALT 300FT

9 de agosto de 2022

Hora Código Tiempo Temp. Visibilidad Cielo nuboso Viento METAR/SPECI
11:00 p. m.
V
64 °F 15 mi 5.200 ft 360° 360° 4 kt METAR CYUL 100300Z 36004KT 320V040 15SM SCT028 OVC052 18/15 A3005 RMK SC3SC5 SLP179 DENSITY ALT 400FT
10:00 p. m.
M
64 °F 15 mi 2.500 ft 360° 360° 4 kt METAR CYUL 100200Z 36004KT 15SM OVC025 18/15 A3005 RMK SC8 SLP178 DENSITY ALT 400FT
9:00 p. m.
M
64 °F 15 mi 2.500 ft 020° 020° 5 kt METAR CYUL 100100Z 02005KT 15SM OVC025 18/14 A3005 RMK SC8 SLP177 DENSITY ALT 400FT
8:00 p. m.
M
66 °F 15 mi 2.800 ft 360° 360° 5 kt METAR CYUL 100000Z 36005KT 15SM OVC028 19/14 A3004 RMK SC8 SLP174 DENSITY ALT 500FT
7:00 p. m.
M
66 °F 12 mi 2.800 ft 360° 360° 6 kt METAR CYUL 092300Z 36006KT 12SM OVC028 19/14 A3002 RMK SC8 SLP170 DENSITY ALT 500FT
6:00 p. m.
V
66 °F 12 mi 4.500 ft 020° 020° 7 kt METAR CYUL 092200Z 02007KT 12SM OVC045 19/14 A3002 RMK SC8 SLP167 DENSITY ALT 500FT
5:00 p. m.
M
66 °F 12 mi 2.200 ft 010° 010° 7 kt METAR CYUL 092100Z 01007KT 300V040 12SM OVC022 19/14 A3001 RMK SC8 SLP166 DENSITY ALT 500FT
4:00 p. m.
M
64 °F 12 mi 2.200 ft 030° 030° 10 kt METAR CYUL 092000Z 03010KT 12SM OVC022 18/15 A3001 RMK SC8 CIG RAG SLP166 DENSITY ALT 400FT
3:00 p. m.
M
64 °F 10 mi 1.800 ft 010° 010° 11 kt METAR CYUL 091900Z 01011KT 10SM BKN018 18/14 A3000 RMK SC7 SLP162 DENSITY ALT 400FT
2:00 p. m.
M
63 °F 6 mi 1.900 ft 020° 020° 9 - 15 kt METAR CYUL 091800Z 02009G15KT 6SM -DZ BR OVC019 17/15 A3000 RMK ST8 SLP161 DENSITY ALT 400FT
1:17 p. m.
M
63 °F 6 mi 1.800 ft 350° 350° 10 kt METAR CYUL 091717Z 35010KT 6SM -DZ BR OVC018 17/15 A2999 RMK ST8 SLP157 DENSITY ALT 400FT
1:00 p. m.
M
63 °F 10 mi 1.600 ft 010° 010° 8 kt METAR CYUL 091700Z 01008KT 10SM OVC016 17/14 A2998 RMK ST8 SLP156 DENSITY ALT 400FT
12:46 p. m.
M
63 °F 10 mi 1.600 ft 360° 360° 9 kt METAR CYUL 091646Z 36009KT 10SM OVC016 17/14 A2998 RMK ST8 SLP154 DENSITY ALT 400FT
12:00 p. m.
M
61 °F 8 mi 1.400 ft 010° 010° 9 kt METAR CYUL 091600Z 01009KT 8SM -DZ OVC014 16/15 A2997 RMK ST8 SLP151 DENSITY ALT 300FT
11:00 a. m.
M
61 °F 8 mi 1.100 ft 010° 010° 10 kt METAR CYUL 091500Z 01010KT 8SM -DZ OVC011 16/14 A2995 RMK ST8 SLP144 DENSITY ALT 300FT
Datos más antiguos

Nosotros y terceros seguimos tu comportamiento en Internet en nuestro sitio web con cookies. Si continúas, asumimos que estás de acuerdo con nuestra política de cookies. Más información